D/T METAR WX W/DIR W/SPE G/SPE TEMP DEWP
22/01/20 07:50 EGOV 220750Z 11001KT 0500 FG VV/// 08/08 Q1039 NOSIG RMK RED RED FG ESE (110°) 1.2mph 8°C 8°C
22/01/20 07:23 EGOV 220723Z 12002KT 0600 FG OVC000 08/08 Q1039 TEMPO 1000 BR RMK RED TEMPO RED FG ESE (120°) 2.3mph 8°C 8°C
22/01/20 06:50 EGOV 220650Z 00000KT 0500 FG OVC000 08/08 Q1039 TEMPO 1000 BR RMK RED TEMPO RED FG N (0°) 8°C 8°C
22/01/20 05:50 EGOV 220550Z AUTO 16003KT 0650 FG OVC002/// 08/08 Q1039 FG SSE (160°) 3.5mph 8°C 8°C
22/01/20 04:50 EGOV 220450Z AUTO 17003KT 1300 BR OVC002/// 08/08 Q1039 BR S (170°) 3.5mph 8°C 8°C
22/01/20 03:50 EGOV 220350Z AUTO 17003KT 2800 BR OVC003/// 08/08 Q1039 BR S (170°) 3.5mph 8°C 8°C
22/01/20 02:50 EGOV 220250Z AUTO 17002KT 2900 BR OVC003/// 08/08 Q1039 BR S (170°) 2.3mph 8°C 8°C
22/01/20 01:50 EGOV 220150Z AUTO 20001KT 4100 BR OVC004/// 08/08 Q1040 BR SSW (200°) 1.2mph 8°C 8°C
22/01/20 00:50 EGOV 220050Z AUTO 16004KT 4100 BR OVC004/// 08/08 Q1040 BR SSE (160°) 4.6mph 8°C 8°C
21/01/20 23:50 EGOV 212350Z AUTO 17005KT 3900 BR OVC006/// 08/08 Q1040 BR S (170°) 5.8mph 8°C 8°C
21/01/20 22:50 EGOV 212250Z AUTO 19004KT 2700 BR OVC007/// 08/08 Q1040 BR S (190°) 4.6mph 8°C 8°C
21/01/20 21:50 EGOV 212150Z AUTO 15003KT 3700 BR OVC007/// 08/08 Q1040 BR SSE (150°) 3.5mph 8°C 8°C
21/01/20 20:50 EGOV 212050Z AUTO 30001KT 4800 BR OVC008/// 08/08 Q1040 BR WNW (300°) 1.2mph 8°C 8°C
21/01/20 19:50 EGOV 211950Z AUTO 29003KT 5000 BR OVC007/// 08/08 Q1040 BR WNW (290°) 3.5mph 8°C 8°C
21/01/20 18:50 EGOV 211850Z AUTO 30003KT 6000 BR OVC006/// 08/08 Q1040 BR WNW (300°) 3.5mph 8°C 8°C
21/01/20 17:50 EGOV 211750Z AUTO 26005KT 1200 OVC002/// 08/08 Q1040 W (260°) 5.8mph 8°C 8°C
21/01/20 17:24 EGOV 211724Z 24003KT 2000 DZ OVC002 08/08 Q1040 NOSIG RMK AMB AMB DZ WSW (240°) 3.5mph 8°C 8°C
21/01/20 16:50 EGOV 211650Z 22003KT 2500 DZ OVC005 08/08 Q1040 TEMPO BKN004 RMK YLO1 TEMPO YLO2 DZ SW (220°) 3.5mph 8°C 8°C
21/01/20 16:26 EGOV 211626Z 22003KT 4000 -DZ OVC006 08/08 Q1040 TEMPO 3000 DZ SCT003 RMK YLO1 TEMPO YLO2 -DZ SW (220°) 3.5mph 8°C 8°C
21/01/20 15:50 EGOV 211550Z 25002KT 3000 -DZ OVC005 08/08 Q1040 TEMPO 2000 DZ BKN004 RMK YLO1 TEMPO YLO2 -DZ WSW (250°) 2.3mph 8°C 8°C
21/01/20 15:22 EGOV 211522Z 26004KT 9999 OVC005 08/08 Q1041 TEMPO 5000 -DZ BKN004 RMK YLO1 TEMPO YLO2 W (260°) 4.6mph 8°C 8°C
21/01/20 14:50 EGOV 211450Z 25005KT 9999 -DZ OVC004 08/08 Q1041 TEMPO 3000 DZ SCT002 RMK YLO2 TEMPO AMB -DZ WSW (250°) 5.8mph 8°C 8°C
21/01/20 14:23 EGOV 211423Z 26004KT 9999 -DZ OVC004 08/08 Q1041 TEMPO 3000 DZ SCT002 RMK YLO2 TEMPO AMB -DZ W (260°) 4.6mph 8°C 8°C
21/01/20 13:50 EGOV 211350Z 25003KT 5000 -DZ OVC003 08/08 Q1041 TEMPO 2000 DZ SCT002 RMK YLO2 TEMPO AMB -DZ WSW (250°) 3.5mph 8°C 8°C
21/01/20 13:25 EGOV 211325Z 26004KT 4500 -DZ SCT003 OVC005 08/08 Q1042 TEMPO SCT002 RMK YLO2 TEMPO AMB -DZ W (260°) 4.6mph 8°C 8°C
21/01/20 12:50 EGOV 211250Z 27005KT 2000 -DZ SCT002 BKN004 OVC006 08/08 Q1042 TEMPO 4000 -DZ FEW002 BKN004 RMK AMB TEMPO YLO2 -DZ W (270°) 5.8mph 8°C 8°C
21/01/20 12:35 EGOV 211235Z 23004KT 2000 DZ BKN002 OVC003 08/08 Q1042 TEMPO FEW002 BKN003 RMK AMB TEMPO YLO2 DZ SW (230°) 4.6mph 8°C 8°C
21/01/20 12:02 EGOV 211202Z 23006KT 4000 -DZ FEW005 BKN006 OVC008 08/07 Q1042 TEMPO 2000 DZ SCT004 RMK YLO1 TEMPO YLO2 -DZ SW (230°) 6.9mph 8°C 7°C
21/01/20 11:21 EGOV 211121Z 27007KT 9999 FEW005 BKN007 08/07 Q1042 TEMPO BKN006 RMK GRN TEMPO YLO1 W (270°) 8.1mph 8°C 7°C
21/01/20 10:50 EGOV 211050Z 27008KT 9999 -RA FEW005 BKN007 08/07 Q1042 TEMPO BKN006 RMK GRN TEMPO YLO1 -RA W (270°) 9.2mph 8°C 7°C
21/01/20 10:24 EGOV 211024Z 26005KT 9999 BKN007 BKN015 09/08 Q1042 NOSIG RMK GRN GRN W (260°) 5.8mph 9°C 8°C
21/01/20 09:50 EGOV 210950Z 24003KT 9999 BKN008 BKN017 08/07 Q1042 NOSIG RMK GRN GRN WSW (240°) 3.5mph 8°C 7°C
21/01/20 09:27 EGOV 210927Z 22003KT 9999 BKN009 08/07 Q1042 NOSIG RMK GRN GRN SW (220°) 3.5mph 8°C 7°C
21/01/20 08:50 EGOV 210850Z 27002KT 9999 BKN011 07/06 Q1042 NOSIG RMK GRN GRN W (270°) 2.3mph 7°C 6°C
21/01/20 07:50 EGOV 210750Z 26002KT 9999 BKN011 08/06 Q1042 TEMPO FEW011 BKN015 RMK GRN TEMPO WHT W (260°) 2.3mph 8°C 6°C
21/01/20 07:23 EGOV 210723Z 24005KT 9999 SCT012 BKN025 08/06 Q1042 TEMPO FEW012 BKN020 RMK GRN TEMPO WHT WSW (240°) 5.8mph 8°C 6°C
21/01/20 06:50 EGOV 210650Z 27004KT 9999 SCT015 BKN025 07/05 Q1042 TEMPO FEW015 RMK WHT TEMPO BLU W (270°) 4.6mph 7°C 5°C
21/01/20 05:50 EGOV 210550Z AUTO 27005KT 9999 FEW021/// BKN027/// 08/05 Q1042 W (270°) 5.8mph 8°C 5°C
21/01/20 04:50 EGOV 210450Z AUTO 30004KT 9999 OVC026/// 07/04 Q1042 WNW (300°) 4.6mph 7°C 4°C
21/01/20 03:50 EGOV 210350Z AUTO 29005KT 9999 OVC025/// 07/04 Q1042 WNW (290°) 5.8mph 7°C 4°C
21/01/20 02:50 EGOV 210250Z AUTO 29005KT 9999 OVC025/// 07/04 Q1042 WNW (290°) 5.8mph 7°C 4°C
21/01/20 01:50 EGOV 210150Z AUTO 28008KT 9999 OVC024/// 07/04 Q1043 W (280°) 9.2mph 7°C 4°C
21/01/20 00:50 EGOV 210050Z AUTO 29006KT 9999 BKN025/// 06/03 Q1044 WNW (290°) 6.9mph 6°C 3°C
20/01/20 23:50 EGOV 202350Z AUTO 30005KT 9999 BKN025/// 06/03 Q1044 WNW (300°) 5.8mph 6°C 3°C
20/01/20 22:50 EGOV 202250Z AUTO 29004KT 9999 BKN023/// 05/04 Q1045 WNW (290°) 4.6mph 5°C 4°C
20/01/20 21:50 EGOV 202150Z AUTO 28001KT 9999 SCT026/// 02/01 Q1045 W (280°) 1.2mph 2°C 1°C
20/01/20 20:50 EGOV 202050Z AUTO 24002KT 9999 NCD 04/02 Q1045 WSW (240°) 2.3mph 4°C 2°C
20/01/20 19:50 EGOV 201950Z 25004KT CAVOK 04/03 Q1046 NOSIG RMK BLU BLU WSW (250°) 4.6mph 4°C 3°C